createdAt,value
2024-04-09T00:01:26.402Z,3.33
2024-04-09T00:03:56.382Z,2.93
2024-04-09T00:06:26.755Z,3.80
2024-04-09T00:08:57.542Z,3.80
2024-04-09T00:11:26.261Z,3.57
2024-04-09T00:13:59.844Z,3.40
2024-04-09T00:16:30.058Z,2.80
2024-04-09T00:19:01.652Z,3.70
2024-04-09T00:21:32.091Z,4.27
2024-04-09T00:24:02.248Z,3.50
2024-04-09T00:26:33.122Z,4.10
2024-04-09T00:29:03.259Z,4.00
2024-04-09T00:31:30.551Z,3.87
2024-04-09T00:34:01.037Z,3.80
2024-04-09T00:36:28.510Z,3.50
2024-04-09T00:39:01.957Z,4.07
2024-04-09T00:41:29.367Z,4.10
2024-04-09T00:43:59.270Z,3.57
2024-04-09T00:46:26.561Z,4.10
2024-04-09T00:48:57.053Z,3.20
2024-04-09T00:51:24.655Z,3.30
2024-04-09T00:53:55.402Z,3.93
2024-04-09T00:56:25.316Z,3.43
2024-04-09T00:58:55.118Z,3.70
2024-04-09T01:01:22.729Z,3.33
2024-04-09T01:03:52.695Z,3.47
2024-04-09T01:06:20.075Z,4.47
2024-04-09T01:08:49.943Z,3.50
2024-04-09T01:11:17.186Z,3.47
2024-04-09T01:13:51.628Z,4.27
2024-04-09T01:16:19.336Z,4.10
2024-04-09T01:18:49.519Z,3.47
2024-04-09T01:21:16.901Z,3.37
2024-04-09T01:23:49.470Z,4.13
2024-04-09T01:26:18.772Z,3.93
2024-04-09T01:28:48.875Z,3.40
2024-04-09T01:31:17.330Z,5.80
2024-04-09T01:33:47.537Z,4.10
2024-04-09T01:36:14.954Z,4.23
2024-04-09T01:38:44.848Z,3.40
2024-04-09T01:41:14.722Z,3.70
2024-04-09T01:43:44.813Z,3.80
2024-04-09T01:46:12.347Z,4.40
2024-04-09T01:48:43.881Z,3.70
2024-04-09T01:51:11.905Z,3.73
2024-04-09T01:53:45.142Z,3.30
2024-04-09T01:56:15.064Z,3.63
2024-04-09T01:58:45.430Z,3.50
2024-04-09T02:01:12.745Z,4.60
2024-04-09T02:03:44.247Z,3.67
2024-04-09T02:06:18.090Z,3.50
2024-04-09T02:08:48.013Z,4.20
2024-04-09T02:11:18.850Z,4.30
2024-04-09T02:13:49.076Z,3.80
2024-04-09T02:16:17.584Z,4.40
2024-04-09T02:18:48.356Z,4.70
2024-04-09T02:21:16.878Z,3.93
2024-04-09T02:23:46.813Z,4.73
2024-04-09T02:26:14.053Z,3.80
2024-04-09T02:28:47.039Z,4.20
2024-04-09T02:31:14.341Z,4.30
2024-04-09T02:33:44.269Z,3.77
2024-04-09T02:36:12.921Z,4.07
2024-04-09T02:38:44.659Z,5.20
2024-04-09T02:41:14.460Z,3.80
2024-04-09T02:43:47.658Z,3.43
2024-04-09T02:46:15.216Z,3.63
2024-04-09T02:48:45.301Z,3.97
2024-04-09T02:51:13.311Z,4.83
2024-04-09T02:53:43.207Z,4.40
2024-04-09T02:56:11.516Z,4.40
2024-04-09T02:58:41.483Z,4.63
2024-04-09T03:01:12.451Z,4.47
2024-04-09T03:03:43.100Z,5.50
2024-04-09T03:06:12.641Z,4.30
2024-04-09T03:08:43.251Z,4.40
2024-04-09T03:11:14.203Z,4.07
2024-04-09T03:13:45.562Z,4.20
2024-04-09T03:16:17.621Z,4.23
2024-04-09T03:18:48.384Z,3.90
2024-04-09T03:21:15.738Z,3.67
2024-04-09T03:23:46.295Z,4.07
2024-04-09T03:26:14.463Z,4.40
2024-04-09T03:28:44.334Z,4.40
2024-04-09T03:31:11.720Z,4.20
2024-04-09T03:33:44.348Z,4.97
2024-04-09T03:36:11.949Z,4.37
2024-04-09T03:38:41.903Z,3.80
2024-04-09T03:41:10.364Z,4.23
2024-04-09T03:43:40.293Z,5.17
2024-04-09T03:46:08.913Z,5.33
2024-04-09T03:48:39.426Z,3.73
2024-04-09T03:51:09.706Z,5.00
2024-04-09T03:53:40.436Z,3.53
2024-04-09T03:56:08.263Z,4.67
2024-04-09T03:58:41.403Z,4.80
2024-04-09T04:01:10.137Z,4.40
2024-04-09T04:03:43.744Z,6.10
2024-04-09T04:06:14.059Z,5.37
2024-04-09T04:08:45.962Z,5.10
2024-04-09T04:11:15.492Z,4.30
2024-04-09T04:13:45.593Z,5.77
2024-04-09T04:16:14.276Z,5.70
2024-04-09T04:18:48.961Z,6.47
2024-04-09T04:21:20.647Z,4.70
2024-04-09T04:23:52.521Z,5.10
2024-04-09T04:26:20.661Z,5.00
2024-04-09T04:28:51.968Z,5.80
2024-04-09T04:31:20.561Z,4.70
2024-04-09T04:33:51.896Z,4.63
2024-04-09T04:36:22.343Z,5.77
2024-04-09T04:38:53.587Z,5.50
2024-04-09T04:41:21.735Z,4.83
2024-04-09T04:43:51.779Z,4.77
2024-04-09T04:46:19.438Z,6.13
2024-04-09T04:48:49.643Z,6.00
2024-04-09T04:51:17.152Z,5.67
2024-04-09T04:53:49.832Z,6.43
2024-04-09T04:56:17.126Z,5.10
2024-04-09T04:58:47.032Z,6.20
2024-04-09T05:01:14.270Z,6.53
2024-04-09T05:03:44.433Z,5.50
2024-04-09T05:06:11.916Z,6.63
2024-04-09T05:08:41.910Z,6.43
2024-04-09T05:11:12.385Z,5.17
2024-04-09T05:13:42.344Z,6.00
2024-04-09T05:16:09.727Z,5.97
2024-04-09T05:18:39.838Z,7.80
2024-04-09T05:21:09.815Z,5.43
2024-04-09T05:23:37.197Z,5.10
2024-04-09T05:26:07.294Z,5.25
2024-04-09T05:28:37.258Z,6.27
2024-04-09T05:31:07.348Z,5.20
2024-04-09T05:33:34.719Z,6.30
2024-04-09T05:36:04.923Z,4.60
2024-04-09T05:38:34.485Z,4.07
2024-04-09T05:41:05.580Z,4.00
2024-04-09T05:43:33.001Z,3.00
2024-04-09T05:46:05.841Z,3.43
2024-04-09T05:48:33.444Z,3.40
2024-04-09T05:51:04.425Z,2.90
2024-04-09T05:53:31.701Z,2.90
2024-04-09T05:56:01.563Z,3.23
2024-04-09T05:58:28.838Z,2.47
2024-04-09T06:00:59.001Z,2.70
2024-04-09T06:03:29.071Z,3.33
2024-04-09T06:06:00.009Z,2.80
2024-04-09T06:08:27.510Z,2.53
2024-04-09T06:10:57.391Z,3.60
2024-04-09T06:13:24.629Z,2.43
2024-04-09T06:15:54.479Z,2.30
2024-04-09T06:18:21.875Z,2.27
2024-04-09T06:20:54.458Z,2.27
2024-04-09T06:23:22.980Z,2.70
2024-04-09T06:25:59.458Z,2.70
2024-04-09T06:28:26.717Z,2.97
2024-04-09T06:30:57.182Z,3.40
2024-04-09T06:33:26.478Z,2.30
2024-04-09T06:36:02.379Z,1.87
2024-04-09T06:38:33.044Z,3.33
2024-04-09T06:41:02.867Z,2.87
2024-04-09T06:43:33.245Z,2.13
2024-04-09T06:46:00.521Z,1.80
2024-04-09T06:48:30.650Z,1.80
2024-04-09T06:51:01.073Z,2.60
2024-04-09T06:53:31.004Z,2.43
2024-04-09T06:55:58.259Z,2.40
2024-04-09T06:58:28.253Z,2.20
2024-04-09T07:00:55.722Z,2.30
2024-04-09T07:03:25.909Z,2.80
2024-04-09T07:05:53.494Z,2.37
2024-04-09T07:08:26.288Z,2.83
2024-04-09T07:10:57.463Z,2.10
2024-04-09T07:13:30.993Z,2.07
2024-04-09T07:16:00.389Z,2.00
2024-04-09T07:18:30.276Z,2.03
2024-04-09T07:20:57.748Z,2.23
2024-04-09T07:23:30.368Z,1.83
2024-04-09T07:25:57.577Z,1.83
2024-04-09T07:28:27.585Z,2.00
2024-04-09T07:30:54.895Z,2.33
2024-04-09T07:33:25.897Z,2.13
2024-04-09T07:35:58.952Z,2.03
2024-04-09T07:38:31.639Z,1.90
2024-04-09T07:40:59.011Z,1.87
2024-04-09T07:43:35.331Z,1.80
2024-04-09T07:46:06.340Z,1.50
2024-04-09T07:48:36.559Z,1.50
2024-04-09T07:51:04.947Z,1.70
2024-04-09T07:53:37.811Z,1.60
2024-04-09T07:56:06.470Z,2.33
2024-04-09T07:58:38.168Z,1.27
2024-04-09T08:01:08.907Z,1.40
2024-04-09T08:03:39.416Z,1.20
2024-04-09T08:06:08.201Z,1.27
2024-04-09T08:08:42.850Z,1.10
2024-04-09T08:11:12.958Z,1.10
2024-04-09T08:13:43.473Z,0.90
2024-04-09T08:16:12.261Z,1.00
2024-04-09T08:18:42.369Z,0.97
2024-04-09T08:21:11.489Z,0.90
2024-04-09T08:23:44.145Z,0.83
2024-04-09T08:26:12.010Z,0.90
2024-04-09T08:28:43.894Z,1.10
2024-04-09T08:31:15.107Z,1.00
2024-04-09T08:33:45.360Z,1.10
2024-04-09T08:36:12.930Z,1.00
2024-04-09T08:38:45.675Z,1.27
2024-04-09T08:41:13.234Z,1.07
2024-04-09T08:43:44.240Z,1.00
2024-04-09T08:46:12.614Z,1.30
2024-04-09T08:48:43.727Z,0.90
2024-04-09T08:51:12.536Z,1.00
2024-04-09T08:53:48.633Z,0.90
2024-04-09T08:56:16.008Z,0.90
2024-04-09T08:58:47.161Z,1.03
2024-04-09T09:01:28.826Z,0.90
2024-04-09T09:03:58.950Z,0.80
2024-04-09T09:06:26.366Z,0.90
2024-04-09T09:09:00.017Z,0.90
2024-04-09T09:11:27.747Z,1.00
2024-04-09T09:14:08.798Z,1.00
2024-04-09T09:16:36.209Z,1.10
2024-04-09T09:19:08.487Z,0.90
2024-04-09T09:21:36.327Z,0.80
2024-04-09T09:24:09.495Z,0.80
2024-04-09T09:26:37.023Z,0.90
2024-04-09T09:29:09.122Z,0.80
2024-04-09T09:31:40.572Z,0.90
2024-04-09T09:34:12.495Z,0.90
2024-04-09T09:36:41.378Z,0.90
2024-04-09T09:39:16.145Z,0.97
2024-04-09T09:41:45.240Z,0.87
2024-04-09T09:44:17.392Z,0.90
2024-04-09T09:46:47.056Z,0.70
2024-04-09T09:49:20.281Z,0.80
2024-04-09T09:51:48.049Z,0.97
2024-04-09T09:54:20.798Z,0.93
2024-04-09T09:56:52.216Z,0.80
2024-04-09T09:59:24.548Z,0.90
2024-04-09T10:01:53.900Z,0.90
2024-04-09T10:04:26.264Z,0.90
2024-04-09T10:06:57.866Z,0.90
2024-04-09T10:09:45.869Z,1.00
2024-04-09T10:12:23.485Z,0.97
2024-04-09T10:15:00.631Z,0.80
2024-04-09T10:17:50.772Z,0.90
2024-04-09T10:20:23.715Z,0.80
2024-04-09T10:22:53.861Z,0.70
2024-04-09T10:25:27.821Z,0.80
2024-04-09T10:28:03.245Z,0.90
2024-04-09T10:30:35.751Z,0.90
2024-04-09T10:33:04.835Z,0.80
2024-04-09T10:35:36.018Z,0.90
2024-04-09T10:38:06.378Z,0.80
2024-04-09T10:40:39.005Z,0.70
2024-04-09T10:43:09.282Z,0.93
2024-04-09T10:45:51.573Z,0.90
2024-04-09T10:48:23.959Z,0.80
2024-04-09T10:50:55.023Z,0.80
2024-04-09T10:53:22.783Z,0.80
2024-04-09T10:56:03.910Z,0.80
2024-04-09T10:58:31.319Z,0.90
2024-04-09T11:01:01.562Z,0.90
2024-04-09T11:03:29.361Z,0.77
2024-04-09T11:06:00.814Z,0.70
2024-04-09T11:08:30.704Z,0.80
2024-04-09T11:11:04.810Z,0.70
2024-04-09T11:13:33.215Z,0.80
2024-04-09T11:16:03.928Z,0.90
2024-04-09T11:18:32.433Z,0.90
2024-04-09T11:21:05.185Z,1.10
2024-04-09T11:23:33.624Z,0.80
2024-04-09T11:26:09.822Z,1.07
2024-04-09T11:28:37.119Z,0.97
2024-04-09T11:31:09.816Z,0.80
2024-04-09T11:33:39.415Z,0.80
2024-04-09T11:36:19.981Z,1.03
2024-04-09T11:38:54.970Z,0.90
2024-04-09T11:41:27.621Z,1.00
2024-04-09T11:43:59.809Z,0.90
2024-04-09T11:46:29.916Z,0.87
2024-04-09T11:49:01.855Z,0.90
2024-04-09T11:51:33.342Z,1.00
2024-04-09T11:54:04.055Z,0.80
2024-04-09T11:56:40.311Z,0.93
2024-04-09T11:59:07.809Z,0.80
2024-04-09T12:01:38.658Z,0.90
2024-04-09T12:04:06.437Z,0.80
2024-04-09T12:06:36.973Z,0.70
2024-04-09T12:09:04.721Z,0.90
2024-04-09T12:11:39.928Z,0.80
2024-04-09T12:14:07.478Z,0.83
2024-04-09T12:16:44.273Z,1.13
2024-04-09T12:19:12.845Z,0.80
2024-04-09T12:21:43.182Z,0.70
2024-04-09T12:24:11.788Z,0.80
2024-04-09T12:26:44.490Z,0.80
2024-04-09T12:29:11.808Z,0.80
2024-04-09T12:31:42.439Z,0.80
2024-04-09T12:34:09.851Z,0.87
2024-04-09T12:36:40.118Z,0.80
2024-04-09T12:39:07.582Z,0.90
2024-04-09T12:41:37.709Z,1.00
2024-04-09T12:44:08.324Z,0.93
2024-04-09T12:46:38.281Z,0.87
2024-04-09T12:49:17.193Z,0.80
2024-04-09T12:51:56.907Z,0.93
2024-04-09T12:54:25.123Z,0.90
2024-04-09T12:56:55.960Z,0.90
2024-04-09T12:59:43.716Z,0.80
2024-04-09T13:02:24.474Z,0.80
2024-04-09T13:04:52.498Z,1.10
2024-04-09T13:07:22.674Z,0.87
2024-04-09T13:09:51.102Z,0.90
2024-04-09T13:12:21.235Z,1.00
2024-04-09T13:17:24.564Z,1.00
2024-04-09T13:19:52.128Z,1.00
2024-04-09T13:22:22.745Z,0.90
2024-04-09T13:24:51.734Z,0.90
2024-04-09T13:27:24.512Z,0.90
2024-04-09T13:29:55.757Z,0.80
2024-04-09T13:32:25.832Z,0.90
2024-04-09T13:34:53.701Z,0.93
2024-04-09T13:37:23.613Z,0.90
2024-04-09T13:39:51.529Z,0.90
2024-04-09T13:42:21.869Z,0.90
2024-04-09T13:44:49.982Z,0.90
2024-04-09T13:47:23.230Z,0.80
2024-04-09T13:49:50.942Z,1.10
2024-04-09T13:52:21.340Z,0.90
2024-04-09T13:54:49.016Z,1.00
2024-04-09T13:57:20.152Z,0.80
2024-04-09T13:59:48.425Z,0.90
2024-04-09T14:02:23.386Z,0.80
2024-04-09T14:04:51.902Z,0.80
2024-04-09T14:07:22.438Z,0.90
2024-04-09T14:09:49.741Z,0.90
2024-04-09T14:12:19.831Z,0.87
2024-04-09T14:14:47.298Z,1.00
2024-04-09T14:17:17.861Z,0.90
2024-04-09T14:19:48.165Z,0.90
2024-04-09T14:22:18.258Z,1.10
2024-04-09T14:24:45.495Z,1.30
2024-04-09T14:27:15.397Z,1.00
2024-04-09T14:29:43.903Z,0.93
2024-04-09T14:32:14.044Z,0.90
2024-04-09T14:34:41.566Z,1.00
2024-04-09T14:37:14.573Z,1.20
2024-04-09T14:39:42.201Z,1.20
2024-04-09T14:42:14.455Z,1.17
2024-04-09T14:44:42.639Z,1.00
2024-04-09T14:47:13.039Z,1.00
2024-04-09T14:49:40.803Z,1.10
2024-04-09T14:52:13.524Z,1.30
2024-04-09T14:54:41.685Z,0.90
2024-04-09T14:57:11.768Z,1.17
2024-04-09T14:59:39.286Z,1.13
2024-04-09T15:02:09.759Z,0.83
2024-04-09T15:04:37.284Z,1.10
2024-04-09T15:07:07.642Z,1.00
2024-04-09T15:09:39.791Z,0.93
2024-04-09T15:12:10.620Z,0.90
2024-04-09T15:14:38.051Z,1.10
2024-04-09T15:17:08.394Z,1.33
2024-04-09T15:19:35.803Z,0.90
2024-04-09T15:22:05.981Z,1.00
2024-04-09T15:24:34.008Z,0.90
2024-04-09T15:27:06.938Z,1.00
2024-04-09T15:29:34.522Z,1.10
2024-04-09T15:32:06.010Z,1.60
2024-04-09T15:34:33.807Z,1.00
2024-04-09T15:37:04.126Z,1.17
2024-04-09T15:39:31.514Z,1.00
2024-04-09T15:42:01.462Z,0.90
2024-04-09T15:44:34.178Z,1.00
2024-04-09T15:47:01.610Z,0.90
2024-04-09T15:49:31.580Z,0.90
2024-04-09T15:51:58.923Z,1.10
2024-04-09T15:54:29.010Z,1.00
2024-04-09T15:56:56.346Z,1.00
2024-04-09T15:59:26.524Z,1.03
2024-04-09T16:01:56.644Z,1.00
2024-04-09T16:04:26.908Z,1.00
2024-04-09T16:06:54.398Z,1.00
2024-04-09T16:09:24.379Z,1.00
2024-04-09T16:11:52.043Z,1.07
2024-04-09T16:14:22.142Z,1.03
2024-04-09T16:16:51.073Z,0.90
2024-04-09T16:19:24.747Z,0.90
2024-04-09T16:21:52.644Z,1.00
2024-04-09T16:24:22.891Z,1.47
2024-04-09T16:26:50.223Z,1.10
2024-04-09T16:29:20.163Z,1.10
2024-04-09T16:31:48.514Z,1.10
2024-04-09T16:34:18.984Z,1.13
2024-04-09T16:36:49.064Z,1.20
2024-04-09T16:39:19.524Z,1.07
2024-04-09T16:41:46.796Z,1.10
2024-04-09T16:44:16.753Z,1.00
2024-04-09T16:46:44.116Z,1.10
2024-04-09T16:49:14.219Z,1.20
2024-04-09T16:51:41.693Z,1.00
2024-04-09T16:54:15.665Z,1.10
2024-04-09T16:56:42.994Z,1.20
2024-04-09T16:59:12.970Z,1.03
2024-04-09T17:01:40.268Z,1.00
2024-04-09T17:04:12.102Z,1.20
2024-04-09T17:06:41.175Z,1.20
2024-04-09T17:09:15.759Z,1.20
2024-04-09T17:11:43.307Z,1.27
2024-04-09T17:14:15.571Z,1.10
2024-04-09T17:16:43.063Z,1.10
2024-04-09T17:19:13.931Z,1.00
2024-04-09T17:21:41.221Z,1.00
2024-04-09T17:24:13.932Z,1.27
2024-04-09T17:26:43.310Z,2.00
2024-04-09T17:29:13.337Z,1.20
2024-04-09T17:31:40.709Z,1.17
2024-04-09T17:34:10.787Z,1.30
2024-04-09T17:36:39.039Z,1.20
2024-04-09T17:39:09.501Z,1.30
2024-04-09T17:41:39.962Z,1.20
2024-04-09T17:44:09.921Z,1.20
2024-04-09T17:46:37.939Z,1.20
2024-04-09T17:49:08.390Z,1.37
2024-04-09T17:51:35.982Z,1.20
2024-04-09T17:54:06.355Z,1.33
2024-04-09T17:56:33.659Z,1.30
2024-04-09T17:59:06.577Z,1.10
2024-04-09T18:01:36.779Z,1.10
2024-04-09T18:04:09.597Z,1.30
2024-04-09T18:06:37.049Z,1.10
2024-04-09T18:09:09.543Z,1.30
2024-04-09T18:11:37.022Z,2.13
2024-04-09T18:14:09.877Z,1.13
2024-04-09T18:16:37.293Z,1.20
2024-04-09T18:19:07.620Z,1.13
2024-04-09T18:21:35.160Z,1.00
2024-04-09T18:24:05.349Z,1.30
2024-04-09T18:26:32.856Z,1.30
2024-04-09T18:29:04.918Z,1.50
2024-04-09T18:31:35.165Z,1.30
2024-04-09T18:34:05.532Z,1.30
2024-04-09T18:36:32.847Z,1.20
2024-04-09T18:39:06.556Z,1.10
2024-04-09T18:41:34.035Z,1.20
2024-04-09T18:44:04.222Z,1.50
2024-04-09T18:46:34.470Z,1.20
2024-04-09T18:49:05.103Z,1.20
2024-04-09T18:51:32.541Z,1.43
2024-04-09T18:54:02.762Z,1.20
2024-04-09T18:56:30.821Z,1.20
2024-04-09T18:59:01.408Z,1.40
2024-04-09T19:01:28.957Z,1.30
2024-04-09T19:04:01.743Z,1.17
2024-04-09T19:06:30.443Z,1.30
2024-04-09T19:09:00.625Z,1.13
2024-04-09T19:11:29.047Z,1.13
2024-04-09T19:13:59.267Z,1.50
2024-04-09T19:16:26.533Z,1.30
2024-04-09T19:18:56.754Z,1.30
2024-04-09T19:21:27.156Z,1.33
2024-04-09T19:23:58.355Z,1.33
2024-04-09T19:26:25.706Z,1.40
2024-04-09T19:28:55.765Z,1.20
2024-04-09T19:31:23.907Z,1.20
2024-04-09T19:33:54.149Z,1.00
2024-04-09T19:36:21.652Z,1.30
2024-04-09T19:38:54.241Z,1.40
2024-04-09T19:41:21.784Z,1.20
2024-04-09T19:43:53.950Z,1.43
2024-04-09T19:46:23.153Z,1.37
2024-04-09T19:48:53.331Z,1.00
2024-04-09T19:51:20.730Z,1.10
2024-04-09T19:53:54.082Z,1.10
2024-04-09T19:56:22.382Z,1.30
2024-04-09T19:58:53.089Z,1.50
2024-04-09T20:01:20.737Z,2.27
2024-04-09T20:03:50.947Z,1.50
2024-04-09T20:06:18.373Z,1.20
2024-04-09T20:08:48.691Z,1.27
2024-04-09T20:11:18.850Z,1.33
2024-04-09T20:13:49.142Z,1.30
2024-04-09T20:16:16.812Z,1.20
2024-04-09T20:18:47.160Z,1.17
2024-04-09T20:21:16.153Z,1.10
2024-04-09T20:23:46.888Z,1.10
2024-04-09T20:26:14.714Z,1.30
2024-04-09T20:28:47.509Z,1.20
2024-04-09T20:31:15.100Z,1.17
2024-04-09T20:33:45.485Z,1.40
2024-04-09T20:36:12.984Z,1.63
2024-04-09T20:38:43.282Z,1.20
2024-04-09T20:41:10.914Z,1.17
2024-04-09T20:43:41.286Z,1.30
2024-04-09T20:46:11.623Z,1.23
2024-04-09T20:48:41.847Z,1.20
2024-04-09T20:51:09.273Z,1.33
2024-04-09T20:53:39.460Z,1.30
2024-04-09T20:56:07.056Z,1.20
2024-04-09T20:58:37.308Z,1.43
2024-04-09T21:01:05.464Z,1.30
2024-04-09T21:03:40.033Z,1.60
2024-04-09T21:06:09.284Z,1.23
2024-04-09T21:08:42.446Z,1.27
2024-04-09T21:11:12.965Z,1.50
2024-04-09T21:13:43.693Z,1.40
2024-04-09T21:16:13.352Z,1.40
2024-04-09T21:18:47.616Z,1.40
2024-04-09T21:21:18.607Z,1.13
2024-04-09T21:23:46.909Z,1.30
2024-04-09T21:26:17.863Z,1.20
2024-04-09T21:28:45.354Z,1.30
2024-04-09T21:31:15.458Z,1.30
2024-04-09T21:33:45.552Z,1.30
2024-04-09T21:36:15.605Z,1.47
2024-04-09T21:38:42.833Z,1.47
2024-04-09T21:41:12.860Z,1.30
2024-04-09T21:43:40.195Z,1.73
2024-04-09T21:46:10.352Z,1.50
2024-04-09T21:48:37.750Z,1.40
2024-04-09T21:51:10.732Z,1.70
2024-04-09T21:53:38.093Z,1.60
2024-04-09T21:56:08.332Z,2.17
2024-04-09T21:58:35.708Z,1.30
2024-04-09T22:01:05.983Z,1.50
2024-04-09T22:03:33.791Z,1.47
2024-04-09T22:06:04.117Z,1.50
2024-04-09T22:08:34.327Z,1.73
2024-04-09T22:11:04.692Z,2.53
2024-04-09T22:13:32.522Z,1.80
2024-04-09T22:16:03.178Z,1.67
2024-04-09T22:18:30.910Z,1.47
2024-04-09T22:21:01.336Z,2.10
2024-04-09T22:23:28.946Z,1.60
2024-04-09T22:26:01.841Z,1.60
2024-04-09T22:28:30.067Z,1.80
2024-04-09T22:30:57.851Z,1.60
2024-04-09T22:33:27.969Z,1.50
2024-04-09T22:35:56.166Z,1.50
2024-04-09T22:38:26.310Z,1.70
2024-04-09T22:40:54.517Z,1.60
2024-04-09T22:43:27.233Z,1.30
2024-04-09T22:46:00.724Z,1.57
2024-04-09T22:48:31.837Z,1.47
2024-04-09T22:50:59.735Z,2.10
2024-04-09T22:53:29.954Z,1.60
2024-04-09T22:55:58.522Z,1.20
2024-04-09T22:58:31.639Z,1.30
2024-04-09T23:01:02.782Z,1.37
2024-04-09T23:03:33.340Z,1.53
2024-04-09T23:06:01.107Z,1.50
2024-04-09T23:08:31.574Z,1.50
2024-04-09T23:11:02.991Z,1.73
2024-04-09T23:13:36.254Z,1.70
2024-04-09T23:16:05.354Z,1.70
2024-04-09T23:18:35.990Z,1.60
2024-04-09T23:21:04.535Z,1.30
2024-04-09T23:23:34.829Z,1.40
2024-04-09T23:26:02.853Z,1.60
2024-04-09T23:28:36.135Z,1.50
2024-04-09T23:31:03.651Z,1.40
2024-04-09T23:33:33.736Z,1.60
2024-04-09T23:36:02.176Z,1.67
2024-04-09T23:38:33.505Z,1.90
2024-04-09T23:41:01.987Z,1.80
2024-04-09T23:43:32.081Z,1.70
2024-04-09T23:46:05.988Z,1.50
2024-04-09T23:48:36.501Z,1.30
2024-04-09T23:51:05.283Z,1.70
2024-04-09T23:53:35.773Z,1.47
2024-04-09T23:56:05.431Z,1.90
2024-04-09T23:58:36.089Z,1.90
